createdAt,value
2023-05-02T00:00:30.395Z,9.7
2023-05-02T00:01:38.965Z,9.3
2023-05-02T00:02:47.277Z,9.3
2023-05-02T00:03:55.670Z,9.3
2023-05-02T00:05:04.116Z,9.2
2023-05-02T00:06:12.448Z,9.2
2023-05-02T00:07:20.775Z,9.2
2023-05-02T00:08:29.305Z,8.7
2023-05-02T00:09:37.680Z,8.7
2023-05-02T00:10:45.947Z,8.7
2023-05-02T00:11:54.482Z,9.4
2023-05-02T00:13:02.817Z,9.4
2023-05-02T00:14:11.137Z,9.4
2023-05-02T00:15:19.669Z,9.5
2023-05-02T00:16:28.022Z,9.5
2023-05-02T00:17:36.353Z,9.5
2023-05-02T00:18:44.844Z,9.6
2023-05-02T00:19:53.162Z,9.6
2023-05-02T00:21:01.476Z,9.6
2023-05-02T00:22:10.017Z,9
2023-05-02T00:23:18.343Z,9
2023-05-02T00:24:26.668Z,9
2023-05-02T00:25:35.208Z,9.4
2023-05-02T00:26:43.503Z,9.4
2023-05-02T00:27:51.829Z,9.4
2023-05-02T00:29:00.361Z,8.7
2023-05-02T00:30:08.687Z,8.7
2023-05-02T00:31:17.013Z,8.7
2023-05-02T00:32:25.585Z,9.1
2023-05-02T00:33:33.872Z,9.1
2023-05-02T00:34:42.221Z,9.1
2023-05-02T00:35:50.734Z,9.3
2023-05-02T00:36:59.067Z,9.3
2023-05-02T00:38:07.384Z,9.3
2023-05-02T00:39:15.905Z,9
2023-05-02T00:40:24.247Z,9
2023-05-02T00:41:32.608Z,9
2023-05-02T00:42:41.128Z,8.4
2023-05-02T00:43:49.445Z,8.4
2023-05-02T00:44:57.780Z,8.4
2023-05-02T00:46:06.328Z,8.9
2023-05-02T00:47:14.656Z,8.9
2023-05-02T00:48:22.942Z,8.9
2023-05-02T00:49:31.465Z,8.3
2023-05-02T00:50:39.783Z,8.3
2023-05-02T00:51:48.114Z,8.3
2023-05-02T00:52:56.645Z,8.4
2023-05-02T00:54:04.958Z,8.4
2023-05-02T00:55:13.282Z,8.4
2023-05-02T00:56:21.804Z,8.6
2023-05-02T00:57:30.159Z,8.6
2023-05-02T00:58:38.457Z,8.6
2023-05-02T00:59:46.994Z,8.2
2023-05-02T01:00:55.309Z,8.2
2023-05-02T01:02:03.728Z,8.2
2023-05-02T01:03:12.234Z,8.8
2023-05-02T01:04:20.583Z,8.8
2023-05-02T01:05:28.810Z,8.8
2023-05-02T01:06:37.361Z,9
2023-05-02T01:07:45.676Z,9
2023-05-02T01:08:53.967Z,9
2023-05-02T01:10:02.663Z,8
2023-05-02T01:11:10.838Z,8
2023-05-02T01:12:19.164Z,8
2023-05-02T01:13:27.815Z,8.3
2023-05-02T01:14:36.007Z,8.3
2023-05-02T01:15:44.345Z,8.3
2023-05-02T01:16:52.871Z,8.3
2023-05-02T01:18:01.220Z,8.3
2023-05-02T01:19:09.516Z,8.3
2023-05-02T01:20:18.023Z,8.6
2023-05-02T01:21:26.350Z,8.6
2023-05-02T01:22:34.669Z,8.6
2023-05-02T01:23:43.197Z,7.9
2023-05-02T01:24:51.515Z,7.9
2023-05-02T01:25:59.855Z,7.9
2023-05-02T01:27:08.398Z,8.6
2023-05-02T01:28:16.728Z,8.6
2023-05-02T01:29:25.076Z,8.6
2023-05-02T01:30:33.580Z,8.5
2023-05-02T01:31:41.955Z,8.5
2023-05-02T01:32:50.274Z,8.5
2023-05-02T01:33:58.752Z,8.4
2023-05-02T01:35:07.058Z,8.4
2023-05-02T01:36:15.383Z,8.4
2023-05-02T01:37:23.899Z,8.4
2023-05-02T01:38:32.223Z,8.4
2023-05-02T01:39:40.554Z,8.4
2023-05-02T01:40:49.080Z,8.3
2023-05-02T01:41:57.403Z,8.3
2023-05-02T01:43:05.721Z,8.3
2023-05-02T01:44:14.272Z,8.1
2023-05-02T01:45:22.620Z,8.1
2023-05-02T01:46:30.931Z,8.1
2023-05-02T01:47:39.483Z,7.8
2023-05-02T01:48:47.766Z,7.8
2023-05-02T01:49:56.091Z,7.8
2023-05-02T01:51:04.631Z,8.5
2023-05-02T01:52:12.941Z,8.5
2023-05-02T01:53:21.279Z,8.5
2023-05-02T01:54:29.815Z,8.2
2023-05-02T01:55:38.142Z,8.2
2023-05-02T01:56:46.488Z,8.2
2023-05-02T01:57:55.003Z,7.9
2023-05-02T01:59:03.327Z,7.9
2023-05-02T02:00:11.703Z,7.9
2023-05-02T02:01:20.227Z,8.6
2023-05-02T02:02:28.514Z,8.6
2023-05-02T02:03:36.853Z,8.6
2023-05-02T02:04:45.522Z,8.2
2023-05-02T02:05:53.676Z,8.2
2023-05-02T02:07:02.661Z,8.2
2023-05-02T02:08:11.178Z,8.6
2023-05-02T02:09:19.514Z,8.6
2023-05-02T02:10:27.844Z,8.6
2023-05-02T02:11:36.385Z,8.1
2023-05-02T02:12:44.705Z,8.1
2023-05-02T02:13:53.031Z,8.1
2023-05-02T02:15:01.554Z,8.9
2023-05-02T02:16:09.954Z,8.9
2023-05-02T02:17:18.225Z,8.9
2023-05-02T02:18:26.723Z,8.2
2023-05-02T02:19:35.031Z,8.2
2023-05-02T02:20:43.364Z,8.2
2023-05-02T02:21:51.887Z,8.3
2023-05-02T02:23:00.216Z,8.3
2023-05-02T02:24:08.537Z,8.3
2023-05-02T02:25:17.080Z,7.9
2023-05-02T02:26:25.420Z,7.9
2023-05-02T02:27:33.737Z,7.9
2023-05-02T02:28:42.268Z,7.8
2023-05-02T02:29:50.588Z,7.8
2023-05-02T02:30:58.905Z,7.8
2023-05-02T02:32:07.429Z,8
2023-05-02T02:33:15.762Z,8
2023-05-02T02:34:24.077Z,8
2023-05-02T02:35:32.736Z,8.1
2023-05-02T02:36:41.038Z,8.1
2023-05-02T02:37:49.352Z,8.1
2023-05-02T02:38:57.878Z,7.7
2023-05-02T02:40:06.202Z,7.7
2023-05-02T02:41:14.537Z,7.7
2023-05-02T02:42:23.059Z,8.4
2023-05-02T02:43:31.374Z,8.4
2023-05-02T02:44:39.690Z,8.4
2023-05-02T02:45:48.294Z,8.7
2023-05-02T02:46:56.559Z,8.7
2023-05-02T02:48:04.925Z,8.7
2023-05-02T02:49:13.426Z,8.2
2023-05-02T02:50:21.746Z,8.2
2023-05-02T02:51:30.053Z,8.2
2023-05-02T02:52:38.583Z,7.8
2023-05-02T02:53:46.906Z,7.8
2023-05-02T02:54:55.237Z,7.8
2023-05-02T02:56:03.781Z,7.8
2023-05-02T02:57:12.108Z,7.8
2023-05-02T02:58:20.444Z,7.8
2023-05-02T02:59:29.002Z,8.1
2023-05-02T03:00:37.322Z,8.1
2023-05-02T03:01:45.665Z,8.1
2023-05-02T03:02:54.184Z,8.1
2023-05-02T03:04:02.562Z,8.1
2023-05-02T03:05:10.838Z,8.1
2023-05-02T03:06:19.376Z,7.4
2023-05-02T03:07:27.650Z,7.4
2023-05-02T03:08:35.959Z,7.4
2023-05-02T03:09:44.491Z,7.7
2023-05-02T03:10:52.823Z,7.7
2023-05-02T03:12:01.150Z,7.7
2023-05-02T03:13:09.670Z,8
2023-05-02T03:14:17.983Z,8
2023-05-02T03:15:26.324Z,8
2023-05-02T03:16:35.024Z,7.9
2023-05-02T03:17:43.192Z,7.9
2023-05-02T03:18:51.503Z,7.9
2023-05-02T03:20:00.216Z,7.8
2023-05-02T03:21:08.370Z,7.8
2023-05-02T03:22:16.673Z,7.8
2023-05-02T03:23:25.204Z,7.3
2023-05-02T03:24:33.537Z,7.3
2023-05-02T03:25:41.856Z,7.3
2023-05-02T03:26:50.375Z,8.1
2023-05-02T03:27:58.697Z,8.1
2023-05-02T03:29:07.021Z,8.1
2023-05-02T03:30:15.554Z,7.1
2023-05-02T03:31:25.479Z,7.1
2023-05-02T03:32:32.210Z,7.1
2023-05-02T03:33:40.727Z,7.8
2023-05-02T03:34:49.051Z,7.8
2023-05-02T03:35:57.370Z,7.8
2023-05-02T03:37:05.941Z,7.2
2023-05-02T03:38:14.330Z,7.2
2023-05-02T03:39:22.634Z,7.2
2023-05-02T03:40:31.284Z,7.5
2023-05-02T03:41:39.645Z,7.5
2023-05-02T03:42:47.962Z,7.5
2023-05-02T03:43:56.504Z,7.9
2023-05-02T03:45:04.874Z,7.9
2023-05-02T03:46:13.218Z,7.9
2023-05-02T03:47:21.750Z,7.9
2023-05-02T03:48:30.063Z,7.9
2023-05-02T03:49:38.386Z,7.9
2023-05-02T03:51:01.683Z,7.9
2023-05-02T03:52:10.812Z,7.9
2023-05-02T03:53:18.912Z,7.9
2023-05-02T03:54:27.433Z,8.2
2023-05-02T03:55:35.781Z,8.2
2023-05-02T03:56:44.421Z,8.2
2023-05-02T03:57:52.929Z,7.6
2023-05-02T03:59:01.244Z,7.6
2023-05-02T04:00:09.576Z,7.6
2023-05-02T04:01:18.116Z,7.6
2023-05-02T04:02:26.529Z,7.6
2023-05-02T04:03:34.902Z,7.6
2023-05-02T04:04:43.539Z,7.6
2023-05-02T04:05:51.824Z,7.6
2023-05-02T04:07:00.009Z,7.6
2023-05-02T04:08:08.575Z,8
2023-05-02T04:09:16.875Z,8
2023-05-02T04:10:25.193Z,8
2023-05-02T04:11:33.716Z,7.6
2023-05-02T04:12:42.044Z,7.6
2023-05-02T04:13:52.037Z,7.6
2023-05-02T04:14:58.902Z,7.8
2023-05-02T04:16:07.252Z,7.8
2023-05-02T04:17:15.710Z,7.8
2023-05-02T04:18:24.090Z,7.4
2023-05-02T04:19:32.422Z,7.4
2023-05-02T04:20:40.759Z,7.4
2023-05-02T04:21:49.287Z,8
2023-05-02T04:22:57.625Z,8
2023-05-02T04:24:05.965Z,8
2023-05-02T04:25:14.464Z,7.2
2023-05-02T04:26:22.788Z,7.2
2023-05-02T04:27:31.123Z,7.2
2023-05-02T04:28:39.645Z,7.6
2023-05-02T04:29:47.953Z,7.6
2023-05-02T04:30:56.321Z,7.6
2023-05-02T04:32:04.800Z,7.3
2023-05-02T04:33:13.129Z,7.3
2023-05-02T04:34:21.422Z,7.3
2023-05-02T04:35:29.949Z,7.1
2023-05-02T04:36:38.265Z,7.1
2023-05-02T04:37:46.603Z,7.1
2023-05-02T04:38:55.143Z,7.2
2023-05-02T04:40:03.518Z,7.2
2023-05-02T04:41:11.814Z,7.2
2023-05-02T04:42:20.340Z,7.2
2023-05-02T04:43:28.648Z,7.2
2023-05-02T04:44:36.993Z,7.2
2023-05-02T04:45:45.532Z,6.9
2023-05-02T04:46:54.008Z,6.9
2023-05-02T04:48:02.258Z,6.9
2023-05-02T04:49:10.719Z,7.2
2023-05-02T04:50:19.057Z,7.2
2023-05-02T04:51:27.385Z,7.2
2023-05-02T04:52:35.915Z,7.8
2023-05-02T04:53:44.241Z,7.8
2023-05-02T04:54:52.576Z,7.8
2023-05-02T04:56:01.141Z,7.6
2023-05-02T04:57:09.424Z,7.6
2023-05-02T04:58:17.728Z,7.6
2023-05-02T04:59:26.263Z,7.2
2023-05-02T05:00:34.611Z,7.2
2023-05-02T05:01:42.910Z,7.2
2023-05-02T05:02:51.493Z,6.7
2023-05-02T05:03:59.851Z,6.7
2023-05-02T05:05:08.165Z,6.7
2023-05-02T05:06:16.657Z,7.1
2023-05-02T05:07:24.937Z,7.1
2023-05-02T05:08:33.252Z,7.1
2023-05-02T05:09:41.815Z,7.2
2023-05-02T05:10:50.112Z,7.2
2023-05-02T05:11:58.454Z,7.2
2023-05-02T05:13:06.968Z,7.2
2023-05-02T05:14:15.276Z,7.2
2023-05-02T05:15:23.593Z,7.2
2023-05-02T05:16:32.166Z,7.2
2023-05-02T05:17:40.515Z,7.2
2023-05-02T05:18:48.756Z,7.2
2023-05-02T05:19:57.468Z,7.3
2023-05-02T05:21:05.602Z,7.3
2023-05-02T05:22:13.927Z,7.3
2023-05-02T05:23:22.434Z,8.2
2023-05-02T05:24:30.759Z,8.2
2023-05-02T05:25:39.079Z,8.2
2023-05-02T05:26:47.600Z,7.5
2023-05-02T05:27:55.937Z,7.5
2023-05-02T05:29:04.220Z,7.5
2023-05-02T05:30:12.760Z,7.6
2023-05-02T05:31:21.116Z,7.6
2023-05-02T05:32:29.422Z,7.6
2023-05-02T05:33:37.993Z,9.2
2023-05-02T05:34:46.258Z,9.2
2023-05-02T05:35:54.579Z,9.2
2023-05-02T05:37:03.101Z,10.5
2023-05-02T05:38:11.417Z,10.5
2023-05-02T05:39:19.725Z,10.5
2023-05-02T05:40:28.280Z,8.1
2023-05-02T05:41:36.572Z,8.1
2023-05-02T05:42:44.901Z,8.1
2023-05-02T05:43:53.565Z,7.8
2023-05-02T05:45:01.749Z,7.8
2023-05-02T05:46:10.056Z,7.8
2023-05-02T05:47:18.620Z,7.9
2023-05-02T05:48:26.938Z,7.9
2023-05-02T05:49:35.972Z,7.9
2023-05-02T05:50:43.761Z,7.3
2023-05-02T05:51:52.082Z,7.3
2023-05-02T05:53:00.435Z,7.3
2023-05-02T05:54:08.966Z,7.1
2023-05-02T05:55:17.336Z,7.1
2023-05-02T05:56:25.723Z,7.1
2023-05-02T05:57:34.278Z,7
2023-05-02T05:58:42.615Z,7
2023-05-02T05:59:51.011Z,7
2023-05-02T06:00:59.517Z,7.2
2023-05-02T06:02:07.924Z,7.2
2023-05-02T06:03:16.287Z,7.2
2023-05-02T06:04:24.805Z,6.3
2023-05-02T06:05:33.106Z,6.3
2023-05-02T06:06:41.464Z,6.3
2023-05-02T06:07:49.988Z,7.1
2023-05-02T06:08:58.344Z,7.1
2023-05-02T06:10:06.684Z,7.1
2023-05-02T06:11:15.232Z,7.1
2023-05-02T06:12:23.559Z,7.1
2023-05-02T06:13:31.871Z,7.1
2023-05-02T06:14:40.415Z,6.9
2023-05-02T06:15:48.798Z,6.9
2023-05-02T06:16:57.103Z,6.9
2023-05-02T06:18:05.694Z,7.2
2023-05-02T06:19:14.002Z,7.2
2023-05-02T06:20:22.331Z,7.2
2023-05-02T06:21:30.875Z,7
2023-05-02T06:22:39.243Z,7
2023-05-02T06:23:47.566Z,7
2023-05-02T06:24:56.114Z,7
2023-05-02T06:26:04.473Z,7
2023-05-02T06:27:12.838Z,7
2023-05-02T06:28:21.398Z,7
2023-05-02T06:29:29.755Z,7
2023-05-02T06:30:38.110Z,7
2023-05-02T06:31:46.714Z,6.6
2023-05-02T06:32:55.042Z,6.6
2023-05-02T06:34:03.391Z,6.6
2023-05-02T06:35:11.927Z,7
2023-05-02T06:36:20.252Z,7
2023-05-02T06:37:28.593Z,7
2023-05-02T06:38:37.150Z,7.3
2023-05-02T06:39:45.478Z,7.3
2023-05-02T06:40:53.817Z,7.3
2023-05-02T06:42:02.367Z,7.1
2023-05-02T06:43:10.724Z,7.1
2023-05-02T06:44:19.026Z,7.1
2023-05-02T06:45:27.566Z,6.6
2023-05-02T06:46:35.933Z,6.6
2023-05-02T06:47:44.424Z,6.6
2023-05-02T06:48:52.806Z,6.7
2023-05-02T06:50:01.561Z,6.7
2023-05-02T06:51:09.500Z,6.7
2023-05-02T06:52:18.036Z,6.7
2023-05-02T06:53:26.364Z,6.7
2023-05-02T06:54:34.690Z,6.7
2023-05-02T06:55:43.243Z,6.6
2023-05-02T06:56:51.564Z,6.6
2023-05-02T06:57:59.888Z,6.6
2023-05-02T06:59:08.407Z,6.3
2023-05-02T07:00:16.735Z,6.3
2023-05-02T07:01:25.100Z,6.3
2023-05-02T07:02:33.632Z,6.3
2023-05-02T07:03:42.181Z,6.3
2023-05-02T07:04:50.321Z,6.3
2023-05-02T07:05:58.926Z,6
2023-05-02T07:07:07.225Z,6
2023-05-02T07:08:15.572Z,6
2023-05-02T07:09:24.108Z,6.3
2023-05-02T07:10:32.454Z,6.3
2023-05-02T07:11:40.793Z,6.3
2023-05-02T07:12:49.311Z,6.1
2023-05-02T07:13:57.677Z,6.1
2023-05-02T07:15:05.993Z,6.1
2023-05-02T07:16:14.529Z,6.1
2023-05-02T07:17:22.988Z,6.1
2023-05-02T07:18:31.210Z,6.1
2023-05-02T07:19:39.769Z,6.3
2023-05-02T07:20:48.054Z,6.3
2023-05-02T07:21:56.371Z,6.3
2023-05-02T07:23:04.912Z,5.6
2023-05-02T07:24:13.236Z,5.6
2023-05-02T07:25:21.552Z,5.6
2023-05-02T07:26:30.083Z,6.1
2023-05-02T07:27:38.424Z,6.1
2023-05-02T07:28:46.781Z,6.1
2023-05-02T07:29:55.311Z,6.3
2023-05-02T07:31:03.618Z,6.3
2023-05-02T07:32:11.992Z,6.3
2023-05-02T07:33:20.460Z,5.7
2023-05-02T07:34:28.770Z,5.7
2023-05-02T07:35:37.765Z,5.7
2023-05-02T07:36:45.691Z,6.5
2023-05-02T07:37:54.003Z,6.5
2023-05-02T07:39:02.356Z,6.5
2023-05-02T07:40:10.901Z,6
2023-05-02T07:41:19.310Z,6
2023-05-02T07:42:27.634Z,6
2023-05-02T07:43:36.178Z,6
2023-05-02T07:44:44.494Z,6
2023-05-02T07:45:52.855Z,6
2023-05-02T07:47:01.396Z,6.1
2023-05-02T07:48:09.726Z,6.1
2023-05-02T07:49:18.056Z,6.1
2023-05-02T07:50:26.587Z,6
2023-05-02T07:51:34.939Z,6
2023-05-02T07:52:43.258Z,6
2023-05-02T07:53:51.821Z,6
2023-05-02T07:55:00.176Z,6
2023-05-02T07:56:08.507Z,6
2023-05-02T07:57:17.049Z,6.5
2023-05-02T07:58:25.386Z,6.5
2023-05-02T07:59:33.743Z,6.5
2023-05-02T08:00:42.298Z,6.1
2023-05-02T08:01:50.666Z,6.1
2023-05-02T08:02:59.123Z,6.1
2023-05-02T08:04:07.755Z,6.6
2023-05-02T08:05:16.132Z,6.6
2023-05-02T08:06:24.292Z,6.6
2023-05-02T08:07:32.926Z,6.6
2023-05-02T08:08:41.228Z,6.6
2023-05-02T08:09:49.582Z,6.6
2023-05-02T08:10:58.108Z,6.4
2023-05-02T08:12:07.257Z,6.4
2023-05-02T08:13:15.628Z,6.4
2023-05-02T08:14:24.162Z,6.2
2023-05-02T08:15:32.512Z,6.2
2023-05-02T08:16:41.033Z,6.2
2023-05-02T08:17:49.431Z,6.6
2023-05-02T08:18:57.757Z,6.6
2023-05-02T08:20:06.103Z,6.6
2023-05-02T08:21:14.653Z,6.7
2023-05-02T08:22:23.010Z,6.7
2023-05-02T08:23:31.388Z,6.7
2023-05-02T08:24:39.914Z,6.7
2023-05-02T08:25:48.317Z,6.7
2023-05-02T08:26:56.667Z,6.7
2023-05-02T08:28:05.217Z,7.2
2023-05-02T08:29:13.570Z,7.2
2023-05-02T08:30:21.917Z,7.2
2023-05-02T08:31:30.468Z,6.5
2023-05-02T08:32:38.772Z,6.5
2023-05-02T08:33:47.117Z,6.5
2023-05-02T08:34:55.685Z,6.3
2023-05-02T08:36:04.040Z,6.3
2023-05-02T08:37:12.381Z,6.3
2023-05-02T08:38:20.935Z,6.6
2023-05-02T08:39:29.317Z,6.6
2023-05-02T08:40:41.977Z,6.6
2023-05-02T08:41:46.141Z,6.5
2023-05-02T08:42:54.491Z,6.5
2023-05-02T08:44:02.843Z,6.5
2023-05-02T08:45:11.801Z,6.8
2023-05-02T08:46:19.786Z,6.8
2023-05-02T08:47:28.240Z,6.8
2023-05-02T08:48:36.695Z,7.2
2023-05-02T08:49:45.018Z,7.2
2023-05-02T08:50:53.372Z,7.2
2023-05-02T08:52:01.890Z,6.2
2023-05-02T08:53:10.228Z,6.2
2023-05-02T08:54:18.546Z,6.2
2023-05-02T08:55:27.142Z,7.1
2023-05-02T08:56:35.393Z,7.1
2023-05-02T08:57:43.730Z,7.1
2023-05-02T08:58:52.288Z,6.3
2023-05-02T09:00:01.463Z,6.3
2023-05-02T09:01:09.805Z,6.3
2023-05-02T09:02:18.344Z,6.4
2023-05-02T09:03:26.710Z,6.4
2023-05-02T09:04:35.104Z,6.4
2023-05-02T09:05:43.606Z,6.6
2023-05-02T09:06:52.105Z,6.6
2023-05-02T09:08:00.299Z,6.6
2023-05-02T09:09:08.828Z,7
2023-05-02T09:10:17.171Z,7
2023-05-02T09:11:25.524Z,7
2023-05-02T09:12:34.025Z,7
2023-05-02T09:13:42.382Z,7
2023-05-02T09:14:50.713Z,7
2023-05-02T09:15:59.311Z,7
2023-05-02T09:17:07.729Z,7
2023-05-02T09:18:16.169Z,7
2023-05-02T09:19:24.716Z,7
2023-05-02T09:20:33.024Z,7
2023-05-02T09:21:41.444Z,7
2023-05-02T09:22:49.919Z,6.7
2023-05-02T09:23:58.251Z,6.7
2023-05-02T09:25:06.592Z,6.7
2023-05-02T09:26:15.124Z,7.5
2023-05-02T09:27:23.474Z,7.5
2023-05-02T09:28:31.796Z,7.5
2023-05-02T09:29:40.341Z,7.4
2023-05-02T09:30:48.820Z,7.4
2023-05-02T09:31:57.079Z,7.4
2023-05-02T09:33:05.619Z,7.6
2023-05-02T09:34:13.960Z,7.6
2023-05-02T09:35:22.286Z,7.6
2023-05-02T09:36:30.826Z,7.7
2023-05-02T09:37:39.149Z,7.7
2023-05-02T09:38:47.485Z,7.7
2023-05-02T09:39:56.030Z,8
2023-05-02T09:41:04.364Z,8
2023-05-02T09:42:12.709Z,8
2023-05-02T09:43:21.311Z,8.6
2023-05-02T09:44:29.615Z,8.6
2023-05-02T09:45:37.965Z,8.6
2023-05-02T09:46:46.505Z,8.5
2023-05-02T09:47:54.895Z,8.5
2023-05-02T09:49:03.237Z,8.5
2023-05-02T09:50:11.787Z,8.4
2023-05-02T09:51:20.121Z,8.4
2023-05-02T09:52:28.474Z,8.4
2023-05-02T09:53:37.028Z,8.4
2023-05-02T09:54:45.383Z,8.4
2023-05-02T09:55:53.736Z,8.4
2023-05-02T09:57:02.273Z,9.6
2023-05-02T09:58:10.632Z,9.6
2023-05-02T09:59:19.031Z,9.6
2023-05-02T10:00:27.522Z,8.9
2023-05-02T10:01:35.914Z,8.9
2023-05-02T10:02:44.271Z,8.9
2023-05-02T10:03:52.820Z,9.5
2023-05-02T10:05:01.361Z,9.5
2023-05-02T10:06:09.568Z,9.5
2023-05-02T10:07:18.053Z,9.9
2023-05-02T10:08:26.412Z,9.9
2023-05-02T10:09:34.753Z,9.9
2023-05-02T10:10:43.317Z,9.9
2023-05-02T10:11:51.661Z,9.9
2023-05-02T10:13:00.024Z,9.9
2023-05-02T10:14:08.584Z,10.2
2023-05-02T10:15:16.956Z,10.2
2023-05-02T10:16:25.430Z,10.2
2023-05-02T10:17:34.165Z,9.7
2023-05-02T10:18:42.456Z,9.7
2023-05-02T10:19:53.175Z,9.7
2023-05-02T10:21:01.715Z,10.4
2023-05-02T10:22:10.031Z,10.4
2023-05-02T10:23:18.392Z,10.4
2023-05-02T10:24:26.934Z,10.4
2023-05-02T10:25:35.280Z,10.4
2023-05-02T10:26:43.617Z,10.4
2023-05-02T10:27:52.161Z,10
2023-05-02T10:29:00.564Z,10
2023-05-02T10:30:08.911Z,10
2023-05-02T10:31:17.558Z,9.5
2023-05-02T10:32:25.859Z,9.5
2023-05-02T10:33:34.195Z,9.5
2023-05-02T10:34:42.749Z,10.7
2023-05-02T10:35:51.091Z,10.7
2023-05-02T10:36:59.433Z,10.7
2023-05-02T10:38:07.972Z,11.2
2023-05-02T10:39:16.335Z,11.2
2023-05-02T10:40:24.671Z,11.2
2023-05-02T10:41:33.209Z,11.2
2023-05-02T10:42:41.558Z,11.2
2023-05-02T10:43:49.908Z,11.2
2023-05-02T10:44:58.597Z,10.8
2023-05-02T10:46:06.779Z,10.8
2023-05-02T10:47:15.130Z,10.8
2023-05-02T10:48:23.668Z,10.8
2023-05-02T10:49:32.023Z,10.8
2023-05-02T10:50:40.366Z,10.8
2023-05-02T10:51:48.915Z,11.3
2023-05-02T10:52:57.266Z,11.3
2023-05-02T10:54:05.642Z,11.3
2023-05-02T10:55:14.206Z,11.3
2023-05-02T10:56:22.540Z,11.3
2023-05-02T10:57:30.905Z,11.3
2023-05-02T10:58:39.462Z,10.6
2023-05-02T10:59:47.806Z,10.6
2023-05-02T11:00:56.166Z,10.6
2023-05-02T11:02:06.917Z,10.4
2023-05-02T11:03:13.146Z,10.4
2023-05-02T11:04:21.391Z,10.4
2023-05-02T11:05:29.946Z,9.9
2023-05-02T11:06:38.312Z,9.9
2023-05-02T11:07:46.996Z,9.9
2023-05-02T11:08:55.735Z,9.9
2023-05-02T11:10:04.103Z,9.9
2023-05-02T11:11:12.434Z,9.9
2023-05-02T11:12:20.980Z,9.5
2023-05-02T11:13:29.375Z,9.5
2023-05-02T11:14:37.692Z,9.5
2023-05-02T11:15:46.250Z,10.2
2023-05-02T11:16:54.693Z,10.2
2023-05-02T11:18:03.044Z,10.2
2023-05-02T11:19:11.505Z,10.5
2023-05-02T11:20:19.834Z,10.5
2023-05-02T11:21:28.165Z,10.5
2023-05-02T11:22:36.713Z,10.4
2023-05-02T11:23:45.071Z,10.4
2023-05-02T11:24:53.411Z,10.4
2023-05-02T11:26:01.961Z,10.7
2023-05-02T11:27:10.305Z,10.7
2023-05-02T11:28:18.673Z,10.7
2023-05-02T11:29:27.228Z,11.2
2023-05-02T11:30:35.570Z,11.2
2023-05-02T11:31:43.923Z,11.2
2023-05-02T11:32:52.520Z,10.5
2023-05-02T11:34:00.827Z,10.5
2023-05-02T11:35:09.198Z,10.5
2023-05-02T11:36:17.757Z,11.3
2023-05-02T11:37:26.123Z,11.3
2023-05-02T11:38:34.460Z,11.3
2023-05-02T11:39:43.026Z,10.7
2023-05-02T11:40:51.381Z,10.7
2023-05-02T11:41:59.731Z,10.7
2023-05-02T11:43:08.252Z,10.5
2023-05-02T11:44:16.604Z,10.5
2023-05-02T11:45:24.949Z,10.5
2023-05-02T11:46:33.533Z,10.9
2023-05-02T11:47:41.897Z,10.9
2023-05-02T11:48:50.194Z,10.9
2023-05-02T11:49:58.737Z,11.5
2023-05-02T11:51:07.242Z,11.5
2023-05-02T11:52:15.421Z,11.5
2023-05-02T11:53:23.999Z,11
2023-05-02T11:54:32.340Z,11
2023-05-02T11:55:40.685Z,11
2023-05-02T11:56:49.237Z,11
2023-05-02T11:57:57.602Z,11
2023-05-02T11:59:05.969Z,11
2023-05-02T12:00:14.513Z,10.6
2023-05-02T12:01:25.129Z,10.6
2023-05-02T12:02:33.484Z,10.6
2023-05-02T12:03:53.342Z,10.9
2023-05-02T12:05:02.413Z,10.9
2023-05-02T12:06:10.605Z,10.9
2023-05-02T12:07:19.105Z,11
2023-05-02T12:08:27.468Z,11
2023-05-02T12:09:35.825Z,11
2023-05-02T12:10:44.392Z,10.8
2023-05-02T12:11:52.780Z,10.8
2023-05-02T12:13:02.040Z,10.8
2023-05-02T12:14:10.617Z,10.5
2023-05-02T12:15:18.956Z,10.5
2023-05-02T12:16:34.333Z,10.5
2023-05-02T12:17:48.871Z,10.3
2023-05-02T12:18:57.753Z,10.3
2023-05-02T12:20:14.495Z,10.3
2023-05-02T12:21:27.898Z,11.6
2023-05-02T12:22:36.741Z,11.6
2023-05-02T12:23:45.103Z,11.6
2023-05-02T12:24:53.653Z,10.3
2023-05-02T12:26:01.996Z,10.3
2023-05-02T12:27:10.395Z,10.3
2023-05-02T12:28:18.952Z,10.7
2023-05-02T12:29:27.303Z,10.7
2023-05-02T12:30:35.645Z,10.7
2023-05-02T12:31:44.521Z,11.4
2023-05-02T12:32:52.859Z,11.4
2023-05-02T12:34:01.487Z,11.4
2023-05-02T12:35:09.781Z,11.6
2023-05-02T12:36:18.130Z,11.6
2023-05-02T12:37:26.520Z,11.6
2023-05-02T12:38:35.039Z,10.8
2023-05-02T12:39:43.402Z,10.8
2023-05-02T12:40:51.756Z,10.8
2023-05-02T12:42:00.310Z,11
2023-05-02T12:43:08.707Z,11
2023-05-02T12:44:17.024Z,11
2023-05-02T12:45:25.594Z,12
2023-05-02T12:46:33.995Z,12
2023-05-02T12:47:42.373Z,12
2023-05-02T12:48:50.923Z,10.5
2023-05-02T12:49:59.608Z,10.5
2023-05-02T12:51:07.690Z,10.5
2023-05-02T12:52:16.246Z,10.8
2023-05-02T12:53:24.630Z,10.8
2023-05-02T12:54:33.061Z,10.8
2023-05-02T12:55:41.622Z,9.9
2023-05-02T12:56:50.050Z,9.9
2023-05-02T12:57:58.419Z,9.9
2023-05-02T12:59:07.018Z,9.8
2023-05-02T13:00:15.370Z,9.8
2023-05-02T13:01:23.727Z,9.8
2023-05-02T13:02:32.392Z,7.3
2023-05-02T13:03:40.734Z,7.3
2023-05-02T13:04:49.048Z,7.3
2023-05-02T13:05:57.683Z,6.3
2023-05-02T13:07:06.018Z,6.3
2023-05-02T13:08:14.406Z,6.3
2023-05-02T13:09:23.012Z,5.1
2023-05-02T13:10:31.386Z,5.1
2023-05-02T13:11:39.774Z,5.1
2023-05-02T13:12:48.432Z,5.3
2023-05-02T13:13:56.799Z,5.3
2023-05-02T13:15:05.200Z,5.3
2023-05-02T13:16:13.883Z,4.6
2023-05-02T13:17:22.275Z,4.6
2023-05-02T13:18:30.503Z,4.6
2023-05-02T13:19:42.442Z,4.3
2023-05-02T13:20:47.489Z,4.3
2023-05-02T13:21:55.850Z,4.3
2023-05-02T13:23:04.447Z,4
2023-05-02T13:24:12.791Z,4
2023-05-02T13:25:21.199Z,4
2023-05-02T13:26:29.731Z,4.2
2023-05-02T13:27:38.134Z,4.2
2023-05-02T13:28:46.478Z,4.2
2023-05-02T13:29:55.040Z,4
2023-05-02T13:31:03.488Z,4
2023-05-02T13:32:11.784Z,4
2023-05-02T13:33:20.363Z,4.1
2023-05-02T13:34:28.818Z,4.1
2023-05-02T13:35:37.178Z,4.1
2023-05-02T13:36:45.797Z,3.9
2023-05-02T13:37:54.149Z,3.9
2023-05-02T13:39:02.496Z,3.9
2023-05-02T13:40:11.109Z,2.2
2023-05-02T13:41:19.487Z,2.2
2023-05-02T13:42:27.801Z,2.2
2023-05-02T13:43:36.379Z,2.2
2023-05-02T13:44:44.762Z,2.2
2023-05-02T13:45:53.127Z,2.2
2023-05-02T13:47:01.698Z,4.3
2023-05-02T13:48:10.118Z,4.3
2023-05-02T13:49:18.430Z,4.3
2023-05-02T13:50:26.989Z,3.4
2023-05-02T13:51:35.356Z,3.4
2023-05-02T13:52:43.656Z,3.4
2023-05-02T13:53:52.205Z,3.6
2023-05-02T13:55:00.547Z,3.6
2023-05-02T13:56:08.856Z,3.6
2023-05-02T13:57:17.469Z,2.5
2023-05-02T13:58:25.795Z,2.5
2023-05-02T13:59:34.155Z,2.5
2023-05-02T14:00:42.728Z,4.3
2023-05-02T14:01:51.082Z,4.3
2023-05-02T14:02:59.437Z,4.3
2023-05-02T14:04:08.129Z,7
2023-05-02T14:05:16.311Z,7
2023-05-02T14:06:24.776Z,7
2023-05-02T14:07:33.213Z,10.1
2023-05-02T14:08:41.560Z,10.1
2023-05-02T14:09:49.890Z,10.1
2023-05-02T14:10:58.480Z,9.7
2023-05-02T14:12:06.779Z,9.7
2023-05-02T14:13:15.172Z,9.7
2023-05-02T14:14:23.807Z,9.7
2023-05-02T14:15:32.085Z,9.7
2023-05-02T14:16:40.455Z,9.7
2023-05-02T14:17:48.988Z,10.3
2023-05-02T14:18:57.332Z,10.3
2023-05-02T14:20:05.649Z,10.3
2023-05-02T14:21:14.244Z,10.4
2023-05-02T14:22:22.637Z,10.4
2023-05-02T14:23:31.020Z,10.4
2023-05-02T14:24:39.555Z,9.6
2023-05-02T14:25:47.925Z,9.6
2023-05-02T14:26:56.287Z,9.6
2023-05-02T14:28:04.828Z,10.2
2023-05-02T14:29:13.210Z,10.2
2023-05-02T14:30:21.569Z,10.2
2023-05-02T14:31:30.102Z,10.1
2023-05-02T14:32:38.659Z,10.1
2023-05-02T14:33:47.017Z,10.1
2023-05-02T14:34:55.550Z,10.1
2023-05-02T14:36:03.913Z,10.1
2023-05-02T14:37:12.315Z,10.1
2023-05-02T14:38:20.906Z,9.5
2023-05-02T14:39:29.239Z,9.5
2023-05-02T14:40:37.603Z,9.5
2023-05-02T14:41:46.180Z,9.1
2023-05-02T14:42:54.537Z,9.1
2023-05-02T14:44:02.883Z,9.1
2023-05-02T14:45:11.509Z,8.5
2023-05-02T14:46:19.930Z,8.5
2023-05-02T14:47:28.252Z,8.5
2023-05-02T14:48:36.870Z,14.3
2023-05-02T14:49:45.242Z,14.3
2023-05-02T14:50:53.631Z,14.3
2023-05-02T14:52:02.197Z,9.9
2023-05-02T14:53:10.564Z,9.9
2023-05-02T14:54:18.928Z,9.9
2023-05-02T14:55:27.502Z,7.8
2023-05-02T14:56:35.909Z,7.8
2023-05-02T14:57:44.293Z,7.8
2023-05-02T14:58:52.811Z,7.2
2023-05-02T15:00:01.564Z,7.2
2023-05-02T15:01:09.645Z,7.2
2023-05-02T15:02:18.114Z,7.9
2023-05-02T15:03:26.524Z,7.9
2023-05-02T15:04:34.845Z,7.9
2023-05-02T15:05:43.370Z,7
2023-05-02T15:40:05.317Z,0
2023-05-02T15:41:13.319Z,0
2023-05-02T15:42:21.726Z,0
2023-05-02T15:43:30.331Z,3.4
2023-05-02T15:44:38.693Z,3.4
2023-05-02T15:45:47.046Z,3.4
2023-05-02T15:46:55.653Z,3.3
2023-05-02T15:48:04.082Z,3.3
2023-05-02T15:49:12.345Z,3.3
2023-05-02T15:50:20.899Z,3.3
2023-05-02T15:51:29.347Z,3.3
2023-05-02T15:52:37.741Z,3.3
2023-05-02T15:53:46.307Z,3.1
2023-05-02T15:54:54.675Z,3.1
2023-05-02T15:56:03.047Z,3.1
2023-05-02T15:57:11.626Z,3.4
2023-05-02T15:58:20.021Z,3.4
2023-05-02T15:59:28.433Z,3.4
2023-05-02T16:00:36.940Z,3.2
2023-05-02T16:01:45.333Z,3.2
2023-05-02T16:02:53.730Z,3.2
2023-05-02T16:04:02.256Z,3.1
2023-05-02T16:05:10.626Z,3.1
2023-05-02T16:06:18.988Z,3.1
2023-05-02T16:07:27.608Z,3.3
2023-05-02T16:08:35.968Z,3.3
2023-05-02T16:09:44.312Z,3.3
2023-05-02T16:10:52.915Z,3.1
2023-05-02T16:12:01.280Z,3.1
2023-05-02T16:13:09.628Z,3.1
2023-05-02T16:14:18.212Z,3.2
2023-05-02T16:15:26.604Z,3.2
2023-05-02T16:16:35.807Z,3.2
2023-05-02T16:17:44.329Z,3.2